Time;durP1;ratioP1;P1;durP2;ratioP2;P2;SDS_P1;SDS_P2;PMS_P1;PMS_P2;Temp;Humidity;BMP_temperature;BMP_pressure;BME280_temperature;BME280_humidity;BME280_pressure;Samples;Min_cycle;Max_cycle;Signal;HPM_P1;HPM_P2
2022/05/05 00:04:04;;;;;;;;;;;;;;;21.69;44.18;95771.75;10378122;28;1861;-43
2022/05/05 00:09:05;;;;;;;;;;;;;;;21.71;43.95;95780.16;10389708;28;1934;-43
2022/05/05 00:14:24;;;;;;;;;;;;;;;21.70;44.18;95768.06;10384758;28;1862;-45
2022/05/05 00:19:25;;;;;;;;;;;;;;;21.72;43.72;95765.91;10391669;28;1784;-44
2022/05/05 00:24:26;;;;;;;;;;;;;;;21.73;43.70;95767.47;10370028;28;1911;-45
2022/05/05 00:29:27;;;;;;;;;;;;;;;21.75;43.73;95765.34;10363805;28;2319;-43
2022/05/05 00:34:27;;;;;;;;;;;;;;;21.74;43.77;95766.41;10389322;28;1888;-45
2022/05/05 00:39:27;;;;;;;;;;;;;;;21.73;43.84;95768.28;10379247;28;1955;-44
2022/05/05 00:44:28;;;;;;;;;;;;;;;21.73;43.59;95757.72;10372499;28;1891;-44
2022/05/05 00:49:29;;;;;;;;;;;;;;;21.74;43.23;95755.88;10381567;28;2027;-46
2022/05/05 00:54:29;;;;;;;;;;;;;;;21.74;43.37;95755.88;10390669;28;1850;-44
2022/05/05 00:59:30;;;;;;;;;;;;;;;21.73;43.26;95747.16;10387690;28;2021;-48
2022/05/05 01:04:33;;;;;;;;;;;;;;;21.70;43.40;95752.22;10390519;28;1945;-44
2022/05/05 01:09:34;;;;;;;;;;;;;;;21.70;43.07;95747.72;10383057;28;1948;-47
2022/05/05 01:14:34;;;;;;;;;;;;;;;21.67;43.35;95760.69;10376154;28;2164;-47
2022/05/05 01:19:36;;;;;;;;;;;;;;;21.68;43.13;95763.03;10381647;28;1963;-45
2022/05/05 01:30:03;;;;;;;;;;;;;;;21.67;42.87;95752.75;10378842;28;2058;-44
2022/05/05 01:35:14;;;;;;;;;;;;;;;21.68;42.75;95746.41;10358920;28;2017;-44
2022/05/05 01:40:15;;;;;;;;;;;;;;;21.66;42.94;95751.97;10378840;28;1956;-47
2022/05/05 01:45:16;;;;;;;;;;;;;;;21.67;42.63;95758.84;10372182;28;1981;-46
2022/05/05 01:50:16;;;;;;;;;;;;;;;21.68;42.73;95770.16;10380819;28;1987;-47
2022/05/05 01:55:16;;;;;;;;;;;;;;;21.70;42.34;95762.78;10376929;28;2015;-43
2022/05/05 02:00:18;;;;;;;;;;;;;;;21.70;42.49;95758.25;10376668;28;2077;-48
2022/05/05 02:05:18;;;;;;;;;;;;;;;21.69;42.63;95754.06;10370719;28;1996;-43
2022/05/05 02:10:20;;;;;;;;;;;;;;;21.69;42.62;95758.56;10370668;28;1931;-46
2022/05/05 02:15:20;;;;;;;;;;;;;;;21.69;42.76;95761.97;10388423;28;1978;-46
2022/05/05 02:20:21;;;;;;;;;;;;;;;21.68;42.59;95764.88;10386420;28;1918;-44
2022/05/05 02:25:21;;;;;;;;;;;;;;;21.70;42.30;95757.50;10376827;28;1946;-47
2022/05/05 02:30:24;;;;;;;;;;;;;;;21.67;42.27;95764.13;10393937;28;1909;-48
2022/05/05 02:35:24;;;;;;;;;;;;;;;21.68;42.25;95772.78;10398386;28;1951;-43
2022/05/05 02:40:25;;;;;;;;;;;;;;;21.65;42.31;95770.72;10384892;28;1886;-45
2022/05/05 02:45:25;;;;;;;;;;;;;;;21.69;42.09;95769.09;10411094;28;2123;-43
2022/05/05 02:50:27;;;;;;;;;;;;;;;21.68;42.00;95764.88;10391702;28;1936;-48
2022/05/05 02:55:27;;;;;;;;;;;;;;;21.67;42.09;95765.97;10396968;28;1992;-48
2022/05/05 03:00:28;;;;;;;;;;;;;;;21.68;41.92;95770.16;10391534;28;1896;-44
2022/05/05 03:05:29;;;;;;;;;;;;;;;21.69;41.99;95767.25;10398244;28;1974;-45
2022/05/05 03:10:30;;;;;;;;;;;;;;;21.69;41.98;95769.09;10390933;28;1977;-45
2022/05/05 03:15:30;;;;;;;;;;;;;;;21.67;41.95;95766.75;10394261;28;1923;-45
2022/05/05 03:20:30;;;;;;;;;;;;;;;21.67;41.84;95779.94;10408324;28;1970;-43
2022/05/05 03:25:31;;;;;;;;;;;;;;;21.68;41.85;95785.97;10401060;28;1879;-44
2022/05/05 03:30:31;;;;;;;;;;;;;;;21.66;41.88;95788.13;10401799;28;1981;-45
2022/05/05 03:35:31;;;;;;;;;;;;;;;21.64;41.93;95791.03;10402076;28;1938;-42
2022/05/05 03:40:32;;;;;;;;;;;;;;;21.65;41.71;95792.63;10403915;28;1935;-44
2022/05/05 03:45:32;;;;;;;;;;;;;;;21.65;41.89;95789.19;10411447;28;1858;-44
2022/05/05 03:50:33;;;;;;;;;;;;;;;21.63;41.82;95793.97;10401038;28;1956;-43
2022/05/05 03:55:33;;;;;;;;;;;;;;;21.64;41.72;95783.13;10398775;28;1838;-44
2022/05/05 04:00:33;;;;;;;;;;;;;;;21.65;41.64;95776.00;10405577;28;1869;-47
2022/05/05 04:05:34;;;;;;;;;;;;;;;21.63;41.79;95783.41;10377217;28;1955;-43
2022/05/05 04:10:35;;;;;;;;;;;;;;;21.64;41.58;95785.75;10387927;28;2065;-43
2022/05/05 04:15:35;;;;;;;;;;;;;;;21.66;41.39;95785.47;10404770;28;1975;-42
2022/05/05 04:20:36;;;;;;;;;;;;;;;21.66;41.50;95781.00;10414062;28;1684;-43
2022/05/05 04:25:39;;;;;;;;;;;;;;;21.65;41.49;95797.09;10402746;28;1964;-46
2022/05/05 04:30:40;;;;;;;;;;;;;;;21.66;41.27;95793.38;10399016;28;1977;-41
2022/05/05 04:35:41;;;;;;;;;;;;;;;21.68;41.49;95802.59;10406055;28;1842;-45
2022/05/05 04:40:42;;;;;;;;;;;;;;;21.67;41.20;95805.53;10390806;28;1838;-43
2022/05/05 04:45:43;;;;;;;;;;;;;;;21.66;41.44;95803.94;10389573;28;1994;-42
2022/05/05 04:50:43;;;;;;;;;;;;;;;21.66;41.42;95802.09;10378433;28;1973;-45
2022/05/05 04:55:43;;;;;;;;;;;;;;;21.68;41.27;95804.44;10386257;28;1810;-43
2022/05/05 05:00:47;;;;;;;;;;;;;;;21.65;41.28;95805.81;10383210;28;1838;-43
2022/05/05 05:05:48;;;;;;;;;;;;;;;21.63;41.14;95797.41;10382538;28;1960;-49
2022/05/05 05:10:48;;;;;;;;;;;;;;;21.61;41.16;95796.09;10398550;28;1909;-42
2022/05/05 05:15:48;;;;;;;;;;;;;;;21.60;41.16;95803.22;10387088;28;1787;-44
2022/05/05 05:20:49;;;;;;;;;;;;;;;21.60;41.24;95805.06;10392472;28;1809;-44
2022/05/05 05:25:49;;;;;;;;;;;;;;;21.64;41.11;95813.97;10392403;28;1826;-43
2022/05/05 05:30:49;;;;;;;;;;;;;;;21.60;41.25;95823.53;10376756;28;1909;-42
2022/05/05 05:35:50;;;;;;;;;;;;;;;21.56;42.38;95825.13;10401323;28;1846;-45
2022/05/05 05:40:50;;;;;;;;;;;;;;;21.50;42.05;95828.88;10395814;28;1865;-48
2022/05/05 05:45:51;;;;;;;;;;;;;;;21.48;41.54;95825.75;10399334;28;1881;-45
2022/05/05 05:50:51;;;;;;;;;;;;;;;21.34;41.63;95832.72;10401552;28;1910;-46
2022/05/05 05:55:51;;;;;;;;;;;;;;;21.24;41.37;95825.69;10395062;28;1897;-46
2022/05/05 06:00:52;;;;;;;;;;;;;;;21.30;40.90;95832.50;10387479;28;1879;-45
2022/05/05 06:05:52;;;;;;;;;;;;;;;21.33;40.24;95839.06;10388210;28;1933;-47
2022/05/05 06:10:53;;;;;;;;;;;;;;;21.35;39.66;95837.72;10393807;28;1910;-47
2022/05/05 06:15:53;;;;;;;;;;;;;;;21.36;39.51;95847.22;10396281;28;1850;-48
2022/05/05 06:20:54;;;;;;;;;;;;;;;21.41;39.44;95844.50;10378063;28;1852;-44
2022/05/05 06:25:55;;;;;;;;;;;;;;;21.45;39.75;95840.25;10380476;28;1895;-46
2022/05/05 06:30:55;;;;;;;;;;;;;;;21.49;39.73;95835.25;10396823;28;1977;-44
2022/05/05 06:35:55;;;;;;;;;;;;;;;21.53;39.86;95831.78;10385600;28;1922;-46
2022/05/05 06:40:56;;;;;;;;;;;;;;;21.66;40.10;95831.13;10377578;28;1871;-41
2022/05/05 06:45:56;;;;;;;;;;;;;;;21.75;40.06;95832.09;10390113;28;1826;-42
2022/05/05 06:50:56;;;;;;;;;;;;;;;21.78;40.43;95843.94;10406591;28;2008;-43
2022/05/05 06:55:58;;;;;;;;;;;;;;;21.79;39.96;95840.22;10389953;28;1826;-43
2022/05/05 07:06:18;;;;;;;;;;;;;;;21.80;39.64;95861.06;10384217;28;1835;-46
2022/05/05 07:11:18;;;;;;;;;;;;;;;21.86;40.48;95867.13;10401807;28;2120;-42
2022/05/05 07:16:19;;;;;;;;;;;;;;;21.90;40.45;95872.63;10391496;28;1864;-43
2022/05/05 07:21:20;;;;;;;;;;;;;;;21.90;40.00;95868.13;10383496;28;1802;-42
2022/05/05 07:26:21;;;;;;;;;;;;;;;21.91;40.65;95869.69;10402035;28;1850;-43
2022/05/05 07:31:21;;;;;;;;;;;;;;;21.93;40.95;95874.72;10395893;28;1905;-46
2022/05/05 07:36:22;;;;;;;;;;;;;;;21.91;41.01;95893.44;10401039;28;1869;-45
2022/05/05 07:41:22;;;;;;;;;;;;;;;21.91;41.49;95900.59;10387517;28;1726;-43
2022/05/05 07:46:23;;;;;;;;;;;;;;;21.93;41.21;95899.25;10406250;28;1814;-44
2022/05/05 07:51:24;;;;;;;;;;;;;;;21.92;41.42;95902.16;10362889;28;1976;-42
2022/05/05 07:56:25;;;;;;;;;;;;;;;21.92;40.95;95894.25;10386542;28;1830;-42
2022/05/05 08:01:26;;;;;;;;;;;;;;;21.91;41.03;95906.66;10377431;28;1803;-43
2022/05/05 08:06:26;;;;;;;;;;;;;;;21.91;40.71;95896.09;10383309;28;1875;-47
2022/05/05 08:11:28;;;;;;;;;;;;;;;21.92;41.48;95902.16;10390435;28;1973;-45
2022/05/05 08:16:28;;;;;;;;;;;;;;;21.91;41.83;95903.25;10391115;28;1977;-46
2022/05/05 08:21:28;;;;;;;;;;;;;;;21.91;41.79;95896.09;10391452;28;1822;-45
2022/05/05 08:31:50;;;;;;;;;;;;;;;21.92;41.99;95908.25;10409571;28;1975;-45
2022/05/05 08:36:51;;;;;;;;;;;;;;;21.94;42.13;95915.88;10414007;28;1930;-49
2022/05/05 08:41:54;;;;;;;;;;;;;;;21.92;41.53;95907.44;10400892;28;1834;-44
2022/05/05 08:46:55;;;;;;;;;;;;;;;21.88;41.50;95917.78;10390535;28;1854;-44
2022/05/05 08:51:55;;;;;;;;;;;;;;;21.88;41.39;95912.50;10357600;28;1914;-42
2022/05/05 08:56:55;;;;;;;;;;;;;;;21.91;40.89;95922.47;10373963;28;1822;-44
2022/05/05 09:01:56;;;;;;;;;;;;;;;21.88;40.30;95915.91;10401438;28;1807;-47
2022/05/05 09:06:56;;;;;;;;;;;;;;;21.91;41.35;95906.66;10387806;28;1862;-42
2022/05/05 09:12:06;;;;;;;;;;;;;;;21.93;41.72;95915.06;10382601;28;1977;-46
2022/05/05 09:17:06;;;;;;;;;;;;;;;21.97;41.75;95915.31;10382637;28;1844;-43
2022/05/05 09:22:07;;;;;;;;;;;;;;;21.98;41.58;95922.97;10387928;28;1814;-42
2022/05/05 09:27:17;;;;;;;;;;;;;;;21.98;41.59;95917.69;10471330;27;1812;-46
2022/05/05 09:32:17;;;;;;;;;;;;;;;22.01;41.53;95917.09;10428154;28;1912;-45
2022/05/05 09:37:19;;;;;;;;;;;;;;;21.99;41.49;95908.69;10433280;28;1798;-43
2022/05/05 09:42:38;;;;;;;;;;;;;;;22.00;41.97;95905.00;10410707;28;1997;-43
2022/05/05 09:47:39;;;;;;;;;;;;;;;22.02;41.82;95912.63;10428346;28;2151;-44
2022/05/05 09:58:00;;;;;;;;;;;;;;;21.95;42.62;95909.53;10426394;28;1783;-44
2022/05/05 10:08:21;;;;;;;;;;;;;;;22.00;43.14;95910.28;10419857;28;1932;-42
2022/05/05 10:13:23;;;;;;;;;;;;;;;21.95;43.21;95910.31;10441891;28;1909;-46
2022/05/05 10:18:23;;;;;;;;;;;;;;;21.98;43.25;95914.25;10423307;28;1817;-43
2022/05/05 10:23:27;;;;;;;;;;;;;;;21.97;43.37;95905.53;10429243;28;1918;-47
2022/05/05 10:28:36;;;;;;;;;;;;;;;21.95;43.57;95897.09;10464803;28;1968;-47
2022/05/05 10:33:55;;;;;;;;;;;;;;;21.95;43.71;95891.81;10484189;28;1978;-43
2022/05/05 10:38:56;;;;;;;;;;;;;;;21.94;43.76;95892.91;10441461;28;1745;-45
2022/05/05 10:44:16;;;;;;;;;;;;;;;21.93;43.88;95890.56;10421741;28;1946;-44
2022/05/05 10:49:28;;;;;;;;;;;;;;;21.93;43.72;95899.25;10435135;28;1827;-48
2022/05/05 10:54:29;;;;;;;;;;;;;;;21.92;43.47;95889.75;10438143;28;1872;-46
2022/05/05 10:59:30;;;;;;;;;;;;;;;21.92;43.43;95875.78;10422254;28;1921;-46
2022/05/05 11:04:31;;;;;;;;;;;;;;;21.91;43.66;95882.91;10441957;28;1973;-48
2022/05/05 11:09:32;;;;;;;;;;;;;;;21.90;43.41;95878.69;10434690;28;1848;-42
2022/05/05 11:25:11;;;;;;;;;;;;;;;21.89;43.28;95866.56;10436376;28;1973;-47
2022/05/05 11:30:13;;;;;;;;;;;;;;;21.88;43.35;95857.06;10432129;28;1725;-43
2022/05/05 11:35:19;;;;;;;;;;;;;;;21.90;43.28;95849.66;10436275;28;1795;-45
2022/05/05 11:40:19;;;;;;;;;;;;;;;21.90;43.46;95841.75;10433003;28;1875;-45
2022/05/05 11:45:20;;;;;;;;;;;;;;;21.89;43.16;95837.53;10428736;28;1973;-46
2022/05/05 11:50:21;;;;;;;;;;;;;;;21.89;43.23;95832.25;10429519;28;1767;-44
2022/05/05 11:55:21;;;;;;;;;;;;;;;21.89;43.35;95832.25;10430816;28;1810;-45
2022/05/05 12:05:43;;;;;;;;;;;;;;;21.89;43.00;95819.03;10437973;28;1960;-45
2022/05/05 12:10:44;;;;;;;;;;;;;;;21.88;43.52;95810.34;10427351;28;1824;-41
2022/05/05 12:15:46;;;;;;;;;;;;;;;21.90;43.14;95804.00;10434838;28;1923;-45
2022/05/05 12:20:46;;;;;;;;;;;;;;;21.89;43.03;95792.66;10415760;28;1842;-48
2022/05/05 12:25:47;;;;;;;;;;;;;;;21.87;43.01;95786.88;10414279;28;2001;-44
2022/05/05 12:30:48;;;;;;;;;;;;;;;21.86;42.93;95783.44;10422474;28;1854;-42
2022/05/05 12:35:50;;;;;;;;;;;;;;;21.86;42.74;95787.97;10429146;28;1938;-46
2022/05/05 12:40:57;;;;;;;;;;;;;;;21.82;42.60;95779.78;10431596;28;1835;-44
2022/05/05 12:46:00;;;;;;;;;;;;;;;21.84;42.76;95776.91;10429294;28;1910;-49
2022/05/05 12:51:09;;;;;;;;;;;;;;;21.82;42.76;95779.78;10433579;28;1976;-45
2022/05/05 13:01:31;;;;;;;;;;;;;;;21.81;42.97;95777.41;10432885;28;1839;-46
2022/05/05 13:06:31;;;;;;;;;;;;;;;21.80;42.94;95775.84;10431683;28;2947;-49
2022/05/05 13:11:32;;;;;;;;;;;;;;;21.78;42.99;95776.13;10429611;28;1819;-44
2022/05/05 13:16:33;;;;;;;;;;;;;;;21.76;42.75;95756.38;10428468;28;1832;-47
2022/05/05 13:21:35;;;;;;;;;;;;;;;21.80;42.69;95757.38;10426431;28;1833;-44
2022/05/05 13:26:36;;;;;;;;;;;;;;;21.77;43.35;95752.66;10409720;28;1922;-42
2022/05/05 13:31:36;;;;;;;;;;;;;;;21.79;43.48;95747.88;10430871;28;1850;-45
2022/05/05 13:36:37;;;;;;;;;;;;;;;21.78;43.33;95747.09;10433254;28;1797;-48
2022/05/05 13:41:38;;;;;;;;;;;;;;;21.77;42.98;95742.91;10409174;28;1863;-45
2022/05/05 13:46:38;;;;;;;;;;;;;;;21.76;43.46;95741.31;10423740;28;1914;-45
2022/05/05 13:51:38;;;;;;;;;;;;;;;21.77;43.14;95734.19;10424892;28;1836;-42
2022/05/05 13:56:39;;;;;;;;;;;;;;;21.81;43.31;95738.66;10417295;28;1760;-43
2022/05/05 14:01:39;;;;;;;;;;;;;;;21.78;43.48;95727.84;10429204;28;1710;-42
2022/05/05 14:06:40;;;;;;;;;;;;;;;21.76;43.37;95737.91;10421269;28;2094;-47
2022/05/05 14:16:59;;;;;;;;;;;;;;;21.77;43.32;95736.81;10440636;28;1933;-44
2022/05/05 14:22:00;;;;;;;;;;;;;;;21.77;43.67;95737.63;10439997;28;1873;-46
2022/05/05 14:27:01;;;;;;;;;;;;;;;21.76;43.28;95732.63;10436913;28;1964;-44
2022/05/05 14:32:01;;;;;;;;;;;;;;;21.77;43.50;95737.63;10436584;28;1801;-42
2022/05/05 14:37:02;;;;;;;;;;;;;;;21.79;43.51;95739.97;10444233;28;1916;-45
2022/05/05 14:42:02;;;;;;;;;;;;;;;21.79;43.36;95742.59;10433857;28;1912;-42
2022/05/05 14:47:04;;;;;;;;;;;;;;;21.80;43.47;95733.63;10432506;28;1965;-43
2022/05/05 14:52:04;;;;;;;;;;;;;;;21.81;43.40;95751.84;10436530;28;1809;-41
2022/05/05 14:57:06;;;;;;;;;;;;;;;21.84;43.61;95753.16;10432989;28;1880;-47
2022/05/05 15:02:06;;;;;;;;;;;;;;;21.85;43.37;95755.50;10431245;28;1757;-49
2022/05/05 15:07:06;;;;;;;;;;;;;;;21.86;43.44;95756.28;10423718;28;1949;-42
2022/05/05 15:12:07;;;;;;;;;;;;;;;21.89;43.41;95755.72;10430767;28;1782;-45
2022/05/05 15:17:08;;;;;;;;;;;;;;;21.91;43.12;95742.25;10432916;28;1752;-47
2022/05/05 15:22:09;;;;;;;;;;;;;;;21.95;43.55;95744.03;10438189;28;1799;-51
2022/05/05 15:27:09;;;;;;;;;;;;;;;21.92;43.47;95747.25;10437039;28;1933;-47
2022/05/05 15:32:10;;;;;;;;;;;;;;;21.95;43.17;95732.72;10433995;28;1821;-49
2022/05/05 15:37:10;;;;;;;;;;;;;;;21.93;43.09;95743.53;10427553;28;1702;-47
2022/05/05 15:42:11;;;;;;;;;;;;;;;21.91;42.95;95743.03;10431745;28;1929;-46
2022/05/05 15:47:12;;;;;;;;;;;;;;;21.92;43.25;95744.59;10434814;28;1977;-47
2022/05/05 15:52:14;;;;;;;;;;;;;;;21.89;43.00;95742.50;10437961;28;1809;-43
2022/05/05 15:57:15;;;;;;;;;;;;;;;21.88;43.26;95754.91;10431944;28;1843;-46
2022/05/05 16:02:16;;;;;;;;;;;;;;;21.87;43.72;95752.56;10440834;28;1811;-45
2022/05/05 16:07:17;;;;;;;;;;;;;;;21.90;44.16;95748.59;10453013;28;1976;-47
2022/05/05 16:12:23;;;;;;;;;;;;;;;21.94;44.58;95745.13;10436100;28;1770;-45
2022/05/05 16:17:24;;;;;;;;;;;;;;;21.95;46.00;95749.31;10444498;28;1813;-47
2022/05/05 16:22:25;;;;;;;;;;;;;;;21.99;45.83;95747.66;10436067;28;1819;-46
2022/05/05 16:32:45;;;;;;;;;;;;;;;22.00;46.63;95756.38;10437352;28;1853;-47
2022/05/05 16:37:46;;;;;;;;;;;;;;;22.01;46.59;95758.72;10444090;28;1863;-43
2022/05/05 16:42:47;;;;;;;;;;;;;;;22.02;47.06;95757.69;10425343;28;1934;-47
2022/05/05 16:47:47;;;;;;;;;;;;;;;22.01;46.74;95756.09;10432418;28;1968;-44
2022/05/05 16:52:49;;;;;;;;;;;;;;;22.00;46.70;95754.53;10428314;28;1804;-49
2022/05/05 16:57:51;;;;;;;;;;;;;;;21.97;46.77;95762.25;10431551;28;1835;-45
2022/05/05 17:02:52;;;;;;;;;;;;;;;21.96;46.67;95766.72;10435500;28;1946;-44
2022/05/05 17:07:53;;;;;;;;;;;;;;;21.96;46.74;95776.50;10435005;28;1776;-43
2022/05/05 17:12:54;;;;;;;;;;;;;;;21.98;46.86;95780.44;10430061;28;1779;-44
2022/05/05 17:17:54;;;;;;;;;;;;;;;21.95;46.60;95780.97;10428356;28;1766;-44
2022/05/05 17:22:54;;;;;;;;;;;;;;;21.93;46.70;95787.63;10426055;28;1999;-44
2022/05/05 17:27:55;;;;;;;;;;;;;;;21.92;46.44;95791.31;10428142;28;1858;-44
2022/05/05 17:32:59;;;;;;;;;;;;;;;21.90;46.42;95794.25;10429416;28;2171;-47
2022/05/05 17:37:59;;;;;;;;;;;;;;;21.89;46.21;95790.03;10434278;28;1874;-48
2022/05/05 17:43:00;;;;;;;;;;;;;;;21.90;46.21;95793.44;10438511;28;1914;-46
2022/05/05 17:53:19;;;;;;;;;;;;;;;21.85;46.08;95789.81;10430798;28;1914;-46
2022/05/05 17:58:20;;;;;;;;;;;;;;;21.85;45.82;95787.16;10440921;28;1799;-45
2022/05/05 18:03:21;;;;;;;;;;;;;;;21.84;45.69;95804.03;10438261;28;1960;-43
2022/05/05 18:08:22;;;;;;;;;;;;;;;21.83;45.82;95799.06;10438176;28;1792;-45
2022/05/05 18:13:25;;;;;;;;;;;;;;;21.81;45.51;95801.16;10435595;28;1993;-46
2022/05/05 18:18:26;;;;;;;;;;;;;;;21.80;45.62;95804.88;10442988;28;1900;-45
2022/05/05 18:23:26;;;;;;;;;;;;;;;21.79;45.69;95811.22;10438990;28;1995;-48
2022/05/05 18:28:26;;;;;;;;;;;;;;;21.79;45.87;95813.84;10442645;28;1793;-47
2022/05/05 18:33:27;;;;;;;;;;;;;;;21.77;45.52;95818.63;10437643;28;1836;-48
2022/05/05 18:38:27;;;;;;;;;;;;;;;21.76;45.75;95809.91;10442627;28;1917;-46
2022/05/05 18:43:27;;;;;;;;;;;;;;;21.75;45.32;95812.84;10436228;28;1987;-45
2022/05/05 18:48:28;;;;;;;;;;;;;;;21.73;45.25;95810.47;10432684;28;1862;-44
2022/05/05 18:53:28;;;;;;;;;;;;;;;21.74;45.53;95816.56;10429137;28;1900;-45
2022/05/05 18:58:29;;;;;;;;;;;;;;;21.73;45.52;95815.75;10436966;28;1949;-44
2022/05/05 19:03:30;;;;;;;;;;;;;;;21.72;45.31;95826.59;10439080;28;1910;-44
2022/05/05 19:08:31;;;;;;;;;;;;;;;21.70;45.43;95837.41;10434836;28;1810;-45
2022/05/05 19:13:31;;;;;;;;;;;;;;;21.70;45.07;95832.13;10437229;28;1802;-43
2022/05/05 19:18:32;;;;;;;;;;;;;;;21.67;45.32;95831.91;10440466;28;1817;-44
2022/05/05 19:23:32;;;;;;;;;;;;;;;21.68;45.10;95844.03;10436164;28;1976;-45
2022/05/05 19:28:32;;;;;;;;;;;;;;;21.66;45.14;95844.31;10437692;28;1921;-44
2022/05/05 19:33:33;;;;;;;;;;;;;;;21.68;45.22;95846.66;10432904;28;1838;-46
2022/05/05 19:38:34;;;;;;;;;;;;;;;21.66;45.37;95859.34;10437376;28;1875;-46
2022/05/05 19:43:38;;;;;;;;;;;;;;;21.65;45.07;95855.94;10429115;28;1958;-46
2022/05/05 19:48:39;;;;;;;;;;;;;;;21.65;45.32;95861.22;10450400;22;3570;-56
2022/05/05 19:53:39;;;;;;;;;;;;;;;21.64;45.12;95858.84;10375208;28;1926;-57
2022/05/05 20:03:59;;;;;;;;;;;;;;;21.64;44.85;95864.91;10353044;28;1918;-55
2022/05/05 20:09:04;;;;;;;;;;;;;;;21.72;44.85;95860.91;10350222;28;1828;-54
2022/05/05 20:14:05;;;;;;;;;;;;;;;21.67;44.92;95863.56;10370550;28;1800;-53
2022/05/05 20:19:06;;;;;;;;;;;;;;;21.69;44.79;95869.34;10346942;28;1811;-57
2022/05/05 20:24:08;;;;;;;;;;;;;;;21.69;44.67;95878.06;10371170;28;1918;-57
2022/05/05 20:29:10;;;;;;;;;;;;;;;21.70;44.37;95881.50;10357381;28;1947;-57
2022/05/05 20:34:10;;;;;;;;;;;;;;;21.71;44.62;95890.97;10369891;28;1856;-52
2022/05/05 20:39:11;;;;;;;;;;;;;;;21.70;44.18;95889.41;10367873;28;1915;-55
2022/05/05 20:44:12;;;;;;;;;;;;;;;21.70;44.47;95892.06;10367565;28;1914;-53
2022/05/05 20:49:13;;;;;;;;;;;;;;;21.72;44.39;95887.28;10361696;28;1978;-53
2022/05/05 20:54:14;;;;;;;;;;;;;;;21.74;44.50;95893.06;10353870;28;1882;-56
2022/05/05 20:59:17;;;;;;;;;;;;;;;21.76;44.67;95896.22;10352963;28;1944;-54
2022/05/05 21:04:18;;;;;;;;;;;;;;;21.76;44.13;95890.94;10360060;28;1969;-57
2022/05/05 21:09:18;;;;;;;;;;;;;;;21.75;44.28;95903.34;10346796;28;2364;-54
2022/05/05 21:14:19;;;;;;;;;;;;;;;21.76;44.47;95899.63;10350114;28;1836;-54
2022/05/05 21:19:19;;;;;;;;;;;;;;;21.73;44.20;95904.66;10323805;28;2986;-51
2022/05/05 21:29:40;;;;;;;;;;;;;;;21.72;44.35;95911.03;10345093;28;1981;-55
2022/05/05 21:34:40;;;;;;;;;;;;;;;21.67;44.43;95919.75;10352794;28;1870;-53
2022/05/05 21:39:40;;;;;;;;;;;;;;;21.66;44.49;95923.44;10346967;28;1872;-53
2022/05/05 21:44:41;;;;;;;;;;;;;;;21.64;44.44;95916.88;10350764;28;1968;-53
2022/05/05 21:49:41;;;;;;;;;;;;;;;21.62;44.37;95906.59;10366365;28;1737;-57
2022/05/05 21:54:42;;;;;;;;;;;;;;;21.60;44.48;95905.28;10365262;28;1816;-57
2022/05/05 21:59:43;;;;;;;;;;;;;;;21.57;44.50;95913.78;10352361;28;1875;-53
2022/05/05 22:04:43;;;;;;;;;;;;;;;21.57;44.28;95913.78;10347197;28;1942;-54
2022/05/05 22:09:43;;;;;;;;;;;;;;;21.55;44.28;95921.97;10341249;28;1868;-55
2022/05/05 22:14:44;;;;;;;;;;;;;;;21.53;44.17;95925.94;10342151;28;1814;-56
2022/05/05 22:19:45;;;;;;;;;;;;;;;21.52;44.02;95925.16;10342937;28;1788;-54
2022/05/05 22:24:45;;;;;;;;;;;;;;;21.50;44.04;95927.28;10325800;28;1971;-54
2022/05/05 22:29:46;;;;;;;;;;;;;;;21.49;43.92;95932.81;10347797;28;1921;-52
2022/05/05 22:34:46;;;;;;;;;;;;;;;21.49;43.92;95930.19;10348530;28;1778;-56
2022/05/05 22:39:46;;;;;;;;;;;;;;;21.48;43.91;95936.50;10338187;28;1884;-55
2022/05/05 22:44:46;;;;;;;;;;;;;;;21.47;43.89;95937.59;10344924;28;1961;-55
2022/05/05 22:55:06;;;;;;;;;;;;;;;21.47;43.72;95966.59;10355612;28;1837;-51
2022/05/05 23:00:07;;;;;;;;;;;;;;;21.48;43.81;95987.41;10343606;28;1919;-52
2022/05/05 23:05:09;;;;;;;;;;;;;;;21.48;43.25;95986.63;10352282;28;1906;-54
2022/05/05 23:10:09;;;;;;;;;;;;;;;21.50;43.48;95997.69;10335585;28;1826;-55
2022/05/05 23:15:10;;;;;;;;;;;;;;;21.51;43.15;96002.72;10356746;28;1812;-53
2022/05/05 23:20:13;;;;;;;;;;;;;;;21.51;43.21;95997.44;10355883;28;1801;-56
2022/05/05 23:25:13;;;;;;;;;;;;;;;21.53;43.23;96005.06;10355529;28;1918;-55
2022/05/05 23:30:13;;;;;;;;;;;;;;;21.53;43.21;96013.78;10335518;28;2030;-51
2022/05/05 23:40:34;;;;;;;;;;;;;;;21.53;43.04;96036.72;10341495;28;1786;-52
2022/05/05 23:45:35;;;;;;;;;;;;;;;21.53;42.97;96019.06;10343253;28;1910;-52
2022/05/05 23:50:35;;;;;;;;;;;;;;;21.54;42.86;96017.19;10337570;28;2208;-52
2022/05/05 23:55:36;;;;;;;;;;;;;;;21.54;42.82;96025.09;10340517;28;1924;-53
